Terminal Aerodrome Forecast
Issued by NWS Topeka, KS

Home | Current Version | Previous Version | Text Only | Print | Product List | Glossary On
Versions: 1 2 3 4 5 6 7 8 9 10 11 12 13 14 15 16 17 18 19 20
000
FTUS43 KTOP 260500
TAFTOP
TAF
KTOP 260536Z 2606/2706 04007KT P6SM OVC012
     FM260700 05010KT 6SM BR OVC009
     FM261700 07012KT P6SM BKN022
     FM262000 07012G20KT P6SM SCT025
     FM270000 06007KT P6SM SKC=

USA.gov is the U.S. government's official web portal to all federal, state and local government web resources and services.